Time;durP1;ratioP1;P1;durP2;ratioP2;P2;SDS_P1;SDS_P2;PMS_P1;PMS_P2;Temp;Humidity;BMP_temperature;BMP_pressure;BME280_temperature;BME280_humidity;BME280_pressure;Samples;Min_cycle;Max_cycle;Signal;HPM_P1;HPM_P2
2023/09/10 00:01:11;;;;;;;15.98;10.05;;;14.60;99.90;;;;;;5036703;28;20033;-67
2023/09/10 00:03:37;;;;;;;14.48;9.73;;;14.60;99.90;;;;;;5036999;28;20043;-67
2023/09/10 00:06:07;;;;;;;16.10;9.95;;;14.60;99.90;;;;;;5036385;28;20084;-66
2023/09/10 00:08:34;;;;;;;14.93;10.27;;;14.50;99.90;;;;;;5037077;28;20030;-66
2023/09/10 00:11:00;;;;;;;21.05;10.10;;;14.60;99.90;;;;;;5036699;28;20048;-66
2023/09/10 00:13:26;;;;;;;14.40;10.00;;;14.60;99.90;;;;;;5036697;28;20060;-66
2023/09/10 00:15:54;;;;;;;15.00;9.20;;;14.60;99.90;;;;;;5036471;28;20333;-66
2023/09/10 00:18:21;;;;;;;10.43;8.63;;;14.60;99.90;;;;;;5036629;28;20025;-66
2023/09/10 00:20:47;;;;;;;13.20;8.88;;;14.40;99.90;;;;;;5036712;28;20029;-66
2023/09/10 00:23:14;;;;;;;14.50;9.55;;;14.40;99.90;;;;;;5036498;28;20036;-67
2023/09/10 00:25:40;;;;;;;14.13;9.93;;;14.30;99.90;;;;;;5019195;28;20034;-66
2023/09/10 00:28:06;;;;;;;14.00;9.95;;;14.30;99.90;;;;;;5016384;28;20029;-67
2023/09/10 00:30:32;;;;;;;15.45;10.00;;;14.20;99.90;;;;;;5015434;28;20030;-66
2023/09/10 00:32:58;;;;;;;12.88;9.43;;;14.20;99.90;;;;;;5016358;28;20057;-66
2023/09/10 00:35:24;;;;;;;17.73;10.02;;;14.10;99.90;;;;;;5015401;28;20026;-66
2023/09/10 00:37:50;;;;;;;14.07;9.65;;;14.20;99.90;;;;;;5014940;28;20080;-66
2023/09/10 00:40:16;;;;;;;13.02;8.98;;;14.20;99.90;;;;;;5015893;28;20360;-66
2023/09/10 00:42:42;;;;;;;14.05;10.25;;;14.00;99.90;;;;;;5016178;28;20089;-67
2023/09/10 00:45:10;;;;;;;19.05;10.70;;;14.00;99.90;;;;;;5016464;28;20030;-66
2023/09/10 00:47:39;;;;;;;15.75;10.13;;;13.90;99.90;;;;;;5015942;28;20034;-66
2023/09/10 00:50:05;;;;;;;14.90;10.02;;;13.90;99.90;;;;;;5015052;28;20400;-67
2023/09/10 00:52:32;;;;;;;14.68;9.32;;;13.90;99.90;;;;;;5016112;28;20532;-66
2023/09/10 00:54:58;;;;;;;13.73;10.07;;;13.90;99.90;;;;;;5034940;28;20057;-66
2023/09/10 00:57:25;;;;;;;12.02;9.30;;;13.90;99.90;;;;;;5035811;28;20529;-66
2023/09/10 00:59:51;;;;;;;13.73;9.32;;;13.80;99.90;;;;;;5035944;28;20021;-66
2023/09/10 01:02:18;;;;;;;16.23;9.40;;;13.80;99.90;;;;;;5035653;28;20407;-66
2023/09/10 01:04:44;;;;;;;14.35;9.60;;;13.70;99.90;;;;;;5034515;28;20049;-66
2023/09/10 01:07:10;;;;;;;14.73;9.05;;;13.70;99.90;;;;;;5036000;28;20075;-66
2023/09/10 01:09:36;;;;;;;12.32;9.30;;;13.80;99.90;;;;;;5035475;28;20031;-66
2023/09/10 01:12:25;;;;;;;12.82;9.55;;;13.80;99.90;;;;;;5034261;28;20116;-66
2023/09/10 01:15:07;;;;;;;15.40;9.02;;;13.80;99.90;;;;;;5034233;28;20030;-66
2023/09/10 01:17:37;;;;;;;14.00;9.35;;;13.70;99.90;;;;;;5034274;28;20034;-66
2023/09/10 01:20:27;;;;;;;13.55;9.07;;;13.80;99.90;;;;;;5035265;28;20467;-66
2023/09/10 01:23:23;;;;;;;13.20;8.80;;;13.80;99.90;;;;;;5033970;28;20048;-66
2023/09/10 01:25:50;;;;;;;14.10;9.00;;;13.80;99.90;;;;;;5015788;28;20065;-66
2023/09/10 01:28:16;;;;;;;11.63;8.43;;;13.80;99.90;;;;;;5014035;28;20120;-66
2023/09/10 01:30:42;;;;;;;15.13;9.55;;;13.80;99.90;;;;;;5015776;28;20057;-66
2023/09/10 01:33:14;;;;;;;10.50;8.77;;;13.80;99.90;;;;;;5015502;28;20034;-66
2023/09/10 01:35:40;;;;;;;13.13;9.05;;;13.80;99.90;;;;;;5015516;28;20541;-67
2023/09/10 01:38:14;;;;;;;12.15;8.52;;;13.70;99.90;;;;;;5015543;28;20033;-67
2023/09/10 01:40:45;;;;;;;11.18;9.00;;;13.80;99.90;;;;;;5015143;28;20434;-66
2023/09/10 01:43:12;;;;;;;12.25;9.00;;;13.80;99.90;;;;;;5015462;28;20029;-66
2023/09/10 01:45:38;;;;;;;10.95;9.02;;;13.80;99.90;;;;;;5015136;28;20494;-66
2023/09/10 01:48:05;;;;;;;12.75;8.63;;;13.70;99.90;;;;;;5015181;28;20033;-66
2023/09/10 01:50:31;;;;;;;13.15;9.02;;;13.70;99.90;;;;;;5014933;28;20029;-66
2023/09/10 01:53:00;;;;;;;19.13;10.02;;;13.80;99.90;;;;;;5018745;28;20029;-66
2023/09/10 01:55:26;;;;;;;15.43;9.05;;;13.70;99.90;;;;;;5034540;28;20550;-66
2023/09/10 01:57:54;;;;;;;14.48;9.27;;;13.80;99.90;;;;;;5033780;28;20125;-66
2023/09/10 02:00:21;;;;;;;16.10;8.70;;;13.70;99.90;;;;;;5033056;28;20060;-66
2023/09/10 02:02:48;;;;;;;13.43;9.40;;;13.80;99.90;;;;;;5033613;28;20044;-66
2023/09/10 02:05:14;;;;;;;14.15;8.52;;;13.70;99.90;;;;;;5034419;28;20041;-66
2023/09/10 02:07:40;;;;;;;10.93;8.40;;;13.70;99.90;;;;;;5034875;28;20025;-66
2023/09/10 02:10:08;;;;;;;13.18;8.57;;;13.70;99.90;;;;;;5034462;28;20036;-66
2023/09/10 02:12:34;;;;;;;13.45;8.75;;;13.60;99.90;;;;;;5034735;28;20453;-66
2023/09/10 02:15:00;;;;;;;12.35;8.68;;;13.70;99.90;;;;;;5034181;28;20029;-66
2023/09/10 02:17:26;;;;;;;13.20;9.25;;;13.60;99.90;;;;;;5034710;28;20025;-67
2023/09/10 02:19:52;;;;;;;13.75;9.27;;;13.60;99.90;;;;;;5034337;28;20052;-66
2023/09/10 02:22:18;;;;;;;12.45;8.45;;;13.50;99.90;;;;;;5033287;28;20048;-66
2023/09/10 02:24:50;;;;;;;14.52;8.48;;;13.60;99.90;;;;;;5024398;28;20388;-67
2023/09/10 02:27:16;;;;;;;12.38;8.43;;;13.60;99.90;;;;;;5014836;28;20113;-66
2023/09/10 02:29:42;;;;;;;12.35;8.30;;;13.60;99.90;;;;;;5014741;28;20105;-66
2023/09/10 02:32:08;;;;;;;12.05;8.75;;;13.40;99.90;;;;;;5013067;28;20129;-66
2023/09/10 02:34:33;;;;;;;12.68;8.95;;;13.30;99.90;;;;;;5013577;28;20491;-66
2023/09/10 02:37:02;;;;;;;17.17;9.45;;;13.30;99.90;;;;;;5012959;28;20033;-66
2023/09/10 02:39:28;;;;;;;15.15;9.15;;;13.20;99.90;;;;;;5014692;28;20022;-66
2023/09/10 02:41:54;;;;;;;14.88;9.73;;;13.10;99.90;;;;;;5013160;28;20452;-66
2023/09/10 02:44:20;;;;;;;14.45;8.38;;;13.00;99.90;;;;;;5014827;28;20026;-66
2023/09/10 02:46:45;;;;;;;12.18;8.90;;;13.00;99.90;;;;;;5014319;28;20541;-66
2023/09/10 02:49:11;;;;;;;12.07;8.98;;;13.00;99.90;;;;;;5014762;28;20033;-66
2023/09/10 02:51:37;;;;;;;13.55;9.00;;;13.10;99.90;;;;;;5014014;28;20487;-66
2023/09/10 02:54:03;;;;;;;10.18;8.68;;;13.10;99.90;;;;;;5025713;28;20483;-66
2023/09/10 02:56:29;;;;;;;13.38;8.43;;;13.00;99.90;;;;;;5033993;28;20076;-66
2023/09/10 02:58:55;;;;;;;13.52;9.77;;;13.00;99.90;;;;;;5034169;28;20036;-66
2023/09/10 03:01:21;;;;;;;12.98;9.50;;;12.90;99.90;;;;;;5032558;28;20068;-66
2023/09/10 03:03:48;;;;;;;12.02;9.13;;;12.90;99.90;;;;;;5035999;28;20034;-66
2023/09/10 03:06:14;;;;;;;13.38;9.00;;;12.90;99.90;;;;;;5036217;28;20072;-66
2023/09/10 03:08:42;;;;;;;15.02;8.95;;;12.90;99.90;;;;;;5036851;28;20038;-66
2023/09/10 03:11:09;;;;;;;13.23;9.00;;;12.90;99.90;;;;;;5036687;28;20030;-66
2023/09/10 03:13:35;;;;;;;14.80;9.07;;;12.90;99.90;;;;;;5036348;28;20498;-66
2023/09/10 03:16:01;;;;;;;12.40;8.95;;;12.90;99.90;;;;;;5036730;28;20033;-66
2023/09/10 03:18:27;;;;;;;12.50;8.55;;;12.90;99.90;;;;;;5036351;28;20029;-66
2023/09/10 03:20:54;;;;;;;11.07;8.32;;;12.90;99.90;;;;;;5037784;28;20025;-66
2023/09/10 03:23:21;;;;;;;12.35;8.38;;;12.80;99.90;;;;;;5036164;28;20474;-66
2023/09/10 03:25:47;;;;;;;13.50;8.43;;;12.80;99.90;;;;;;5017911;28;20363;-66
2023/09/10 03:28:13;;;;;;;12.57;8.77;;;12.90;99.90;;;;;;5016286;28;20034;-66
2023/09/10 03:30:39;;;;;;;12.23;8.25;;;12.80;99.90;;;;;;5018025;28;20036;-66
2023/09/10 03:33:05;;;;;;;16.30;8.30;;;12.80;99.90;;;;;;5016144;28;20053;-66
2023/09/10 03:35:31;;;;;;;12.27;8.52;;;12.80;99.90;;;;;;5016510;28;20084;-66
2023/09/10 03:37:57;;;;;;;9.95;7.95;;;12.80;99.90;;;;;;5016291;28;20037;-67
2023/09/10 03:40:23;;;;;;;13.30;8.88;;;12.80;99.90;;;;;;5017657;28;20026;-66
2023/09/10 03:42:49;;;;;;;15.45;8.63;;;12.80;99.90;;;;;;5016112;28;20550;-66
2023/09/10 03:45:15;;;;;;;13.75;8.02;;;12.80;99.90;;;;;;5016513;28;20030;-67
2023/09/10 03:47:41;;;;;;;13.20;9.07;;;12.80;99.90;;;;;;5016019;28;20070;-67
2023/09/10 03:50:07;;;;;;;13.32;8.65;;;12.80;99.90;;;;;;5017458;28;20033;-66
2023/09/10 03:52:33;;;;;;;13.93;9.35;;;12.90;99.90;;;;;;5017323;28;20572;-66
2023/09/10 03:54:59;;;;;;;18.60;9.95;;;12.80;99.90;;;;;;5035873;28;20056;-67
2023/09/10 03:57:25;;;;;;;13.93;8.73;;;12.80;99.90;;;;;;5035936;28;20030;-66
2023/09/10 03:59:52;;;;;;;15.52;9.40;;;12.80;99.90;;;;;;5035456;28;20026;-66
2023/09/10 04:02:18;;;;;;;13.85;9.13;;;12.80;99.90;;;;;;5037168;28;20626;-66
2023/09/10 04:04:43;;;;;;;12.68;8.63;;;12.70;99.90;;;;;;5035226;28;20399;-66
2023/09/10 04:07:09;;;;;;;13.15;9.10;;;12.60;99.90;;;;;;5035858;28;20025;-66
2023/09/10 04:09:35;;;;;;;18.98;10.05;;;12.60;99.90;;;;;;5036423;28;20036;-66
2023/09/10 04:12:01;;;;;;;18.35;9.80;;;12.70;99.90;;;;;;5036724;28;20069;-66
2023/09/10 04:14:27;;;;;;;16.77;9.82;;;12.70;99.90;;;;;;5035911;28;20455;-66
2023/09/10 04:16:53;;;;;;;15.20;10.07;;;12.70;99.90;;;;;;5035088;28;20033;-66
2023/09/10 04:19:19;;;;;;;17.35;8.80;;;12.70;99.90;;;;;;5035101;28;20026;-68
2023/09/10 04:21:45;;;;;;;15.90;9.63;;;12.70;99.90;;;;;;5036778;28;20025;-68
2023/09/10 04:24:11;;;;;;;18.98;9.65;;;12.80;99.90;;;;;;5029530;28;20511;-68
2023/09/10 04:26:37;;;;;;;20.25;9.57;;;12.70;99.90;;;;;;5015615;28;20030;-67
2023/09/10 04:29:03;;;;;;;15.95;8.73;;;12.80;99.90;;;;;;5015449;28;20506;-66
2023/09/10 04:31:29;;;;;;;18.15;9.10;;;12.70;99.90;;;;;;5015525;28;20507;-66
2023/09/10 04:33:56;;;;;;;17.02;9.50;;;12.60;99.90;;;;;;5015134;28;20037;-66
2023/09/10 04:36:21;;;;;;;14.38;9.45;;;12.60;99.90;;;;;;5015421;28;20388;-66
2023/09/10 04:38:47;;;;;;;12.63;8.52;;;12.50;99.90;;;;;;5015144;28;20022;-66
2023/09/10 04:41:13;;;;;;;17.60;9.52;;;12.50;99.90;;;;;;5015030;28;20048;-66
2023/09/10 04:43:41;;;;;;;13.35;9.35;;;12.50;99.90;;;;;;5016606;28;20037;-66
2023/09/10 04:46:07;;;;;;;13.90;9.27;;;12.50;99.90;;;;;;5014904;28;20036;-66
2023/09/10 04:48:32;;;;;;;16.13;9.77;;;12.50;99.90;;;;;;5015228;28;20045;-67
2023/09/10 04:50:59;;;;;;;13.98;9.60;;;12.60;99.90;;;;;;5015018;28;20037;-66
2023/09/10 04:53:25;;;;;;;17.42;9.30;;;12.60;99.90;;;;;;5023608;28;20471;-66
2023/09/10 04:55:53;;;;;;;14.10;9.18;;;12.70;99.90;;;;;;5034532;28;20120;-66
2023/09/10 04:58:20;;;;;;;13.68;9.23;;;12.60;99.90;;;;;;5034858;28;20052;-66
2023/09/10 05:00:47;;;;;;;15.98;9.98;;;12.70;99.90;;;;;;5034227;28;20391;-66
2023/09/10 05:03:14;;;;;;;16.80;10.25;;;12.80;99.90;;;;;;5034790;28;20364;-66
2023/09/10 05:05:39;;;;;;;13.40;9.23;;;13.00;99.90;;;;;;5034094;28;20056;-66
2023/09/10 05:08:05;;;;;;;19.25;10.43;;;13.10;99.90;;;;;;5034593;28;20037;-66
2023/09/10 05:10:31;;;;;;;14.20;9.68;;;13.10;99.90;;;;;;5034207;28;20033;-66
2023/09/10 05:12:58;;;;;;;19.55;11.18;;;13.20;99.90;;;;;;5034387;28;20030;-66
2023/09/10 05:15:24;;;;;;;13.20;9.93;;;13.30;99.90;;;;;;5034029;28;20030;-67
2023/09/10 05:17:50;;;;;;;14.88;10.00;;;13.50;99.90;;;;;;5035674;28;20021;-66
2023/09/10 05:20:16;;;;;;;14.07;10.15;;;13.60;99.90;;;;;;5034028;28;20030;-66
2023/09/10 05:22:42;;;;;;;20.90;10.80;;;13.60;99.90;;;;;;5034317;28;20037;-66
2023/09/10 05:25:08;;;;;;;20.83;11.15;;;13.70;99.90;;;;;;5021337;28;20037;-66
2023/09/10 05:27:34;;;;;;;20.02;10.60;;;13.90;99.90;;;;;;5013697;28;20034;-66
2023/09/10 05:30:00;;;;;;;20.58;11.80;;;14.10;99.90;;;;;;5014439;28;20546;-66
2023/09/10 05:32:27;;;;;;;18.13;10.93;;;14.20;99.90;;;;;;5014063;28;20025;-66
2023/09/10 05:34:54;;;;;;;20.00;10.75;;;14.30;99.90;;;;;;5014261;28;20396;-66
2023/09/10 05:37:19;;;;;;;15.88;10.43;;;14.40;99.90;;;;;;5013953;28;20033;-66
2023/09/10 05:39:45;;;;;;;19.25;11.25;;;14.60;99.90;;;;;;5014335;28;20041;-66
2023/09/10 05:42:11;;;;;;;16.73;11.00;;;14.80;99.90;;;;;;5013841;28;20030;-66
2023/09/10 05:44:37;;;;;;;20.60;10.60;;;14.80;99.90;;;;;;5014136;28;20040;-66
2023/09/10 05:47:03;;;;;;;20.00;10.82;;;15.00;99.90;;;;;;5015138;28;20030;-66
2023/09/10 05:49:29;;;;;;;22.35;11.23;;;15.10;99.90;;;;;;5014031;28;20131;-66
2023/09/10 05:51:55;;;;;;;21.55;11.13;;;15.30;99.90;;;;;;5013603;28;20053;-66
2023/09/10 05:54:21;;;;;;;18.88;12.30;;;15.50;99.90;;;;;;5029087;28;20368;-66
2023/09/10 05:56:47;;;;;;;22.65;11.70;;;15.70;99.90;;;;;;5034523;28;20068;-66
2023/09/10 05:59:13;;;;;;;25.23;12.93;;;15.60;99.90;;;;;;5033704;28;20108;-67
2023/09/10 06:01:39;;;;;;;18.67;10.98;;;15.70;99.90;;;;;;5033339;28;20057;-67
2023/09/10 06:04:05;;;;;;;19.10;10.98;;;16.00;99.90;;;;;;5033613;28;20034;-67
2023/09/10 06:06:32;;;;;;;20.58;10.77;;;16.10;99.90;;;;;;5033294;28;20057;-66
2023/09/10 06:08:58;;;;;;;29.35;11.38;;;16.30;99.90;;;;;;5033319;28;20040;-67
2023/09/10 06:11:24;;;;;;;22.10;10.98;;;16.50;99.90;;;;;;5033331;28;20033;-66
2023/09/10 06:13:50;;;;;;;17.23;10.48;;;16.80;99.90;;;;;;5032916;28;20387;-67
2023/09/10 06:16:16;;;;;;;20.38;11.02;;;17.10;99.90;;;;;;5033428;28;20029;-67
2023/09/10 06:18:42;;;;;;;18.17;11.10;;;17.50;99.90;;;;;;5032857;28;20079;-67
2023/09/10 06:21:08;;;;;;;19.83;11.02;;;17.40;99.90;;;;;;5034770;28;20045;-67
2023/09/10 06:23:34;;;;;;;21.38;11.00;;;17.70;99.90;;;;;;5032525;28;20033;-67
2023/09/10 06:26:00;;;;;;;15.95;10.27;;;18.10;99.90;;;;;;5014842;28;20033;-66
2023/09/10 06:28:26;;;;;;;22.08;11.43;;;18.50;99.90;;;;;;5013134;28;20037;-67
2023/09/10 06:30:52;;;;;;;14.43;9.93;;;18.70;99.90;;;;;;5013613;28;20436;-67
2023/09/10 06:33:18;;;;;;;15.35;9.80;;;19.20;98.30;;;;;;5012949;28;20482;-67
2023/09/10 06:35:44;;;;;;;15.50;9.57;;;19.80;97.70;;;;;;5013393;28;20025;-67
2023/09/10 06:38:10;;;;;;;17.00;9.43;;;20.30;95.90;;;;;;5013755;28;20030;-67
2023/09/10 06:40:36;;;;;;;15.05;9.77;;;20.60;94.90;;;;;;5014525;28;20097;-67
2023/09/10 06:43:08;;;;;;;19.20;11.32;;;20.70;93.50;;;;;;5013029;28;20064;-67
2023/09/10 06:45:42;;;;;;;17.25;10.98;;;20.90;93.10;;;;;;5013310;28;20057;-67
2023/09/10 06:48:08;;;;;;;22.13;11.85;;;21.00;91.50;;;;;;5014221;28;20394;-67
2023/09/10 06:50:34;;;;;;;20.35;12.45;;;21.30;90.90;;;;;;5014641;28;20105;-67
2023/09/10 06:53:00;;;;;;;24.58;11.35;;;21.50;89.80;;;;;;5018258;28;20029;-67
2023/09/10 06:55:26;;;;;;;21.38;12.00;;;21.80;89.40;;;;;;5033979;28;20026;-67
2023/09/10 06:57:52;;;;;;;28.00;13.32;;;22.00;87.60;;;;;;5034304;28;20025;-67
2023/09/10 07:00:18;;;;;;;17.92;10.68;;;22.20;86.20;;;;;;5033812;28;20029;-67
2023/09/10 07:02:44;;;;;;;25.30;12.40;;;22.40;81.20;;;;;;5034292;28;20030;-67
2023/09/10 07:05:10;;;;;;;19.45;11.52;;;22.20;78.60;;;;;;5033785;28;20453;-67
2023/09/10 07:07:36;;;;;;;22.65;12.15;;;22.00;82.20;;;;;;5034125;28;20025;-67
2023/09/10 07:10:02;;;;;;;18.52;11.32;;;22.30;82.70;;;;;;5033687;28;20505;-67
2023/09/10 07:12:28;;;;;;;21.92;11.88;;;22.60;80.00;;;;;;5034006;28;20033;-67
2023/09/10 07:14:54;;;;;;;22.08;11.23;;;22.90;78.50;;;;;;5033499;28;20025;-67
2023/09/10 07:17:20;;;;;;;16.25;11.00;;;23.00;76.90;;;;;;5034019;28;20391;-67
2023/09/10 07:19:46;;;;;;;25.55;11.15;;;23.30;76.50;;;;;;5033758;28;20029;-67
2023/09/10 07:22:13;;;;;;;24.05;10.55;;;24.10;77.60;;;;;;5033896;28;20080;-67
2023/09/10 07:24:40;;;;;;;18.63;10.10;;;24.30;70.60;;;;;;5024335;28;20026;-67
2023/09/10 07:27:06;;;;;;;21.80;10.30;;;24.50;70.20;;;;;;5014352;28;20508;-67
2023/09/10 07:29:32;;;;;;;20.75;10.98;;;24.60;68.70;;;;;;5013699;28;20058;-67
2023/09/10 07:31:57;;;;;;;24.65;10.75;;;24.90;65.90;;;;;;5014347;28;20022;-67
2023/09/10 07:34:23;;;;;;;26.77;11.43;;;25.40;67.10;;;;;;5013870;28;20038;-67
2023/09/10 07:36:49;;;;;;;26.33;11.77;;;25.50;62.70;;;;;;5013975;28;20022;-67
2023/09/10 07:39:18;;;;;;;18.33;10.50;;;25.60;62.60;;;;;;5013918;28;20431;-67
2023/09/10 07:41:44;;;;;;;25.85;13.25;;;25.40;63.20;;;;;;5013974;28;20024;-67
2023/09/10 07:44:10;;;;;;;19.20;11.90;;;25.40;60.60;;;;;;5014006;28;20041;-67
2023/09/10 07:46:36;;;;;;;19.88;11.63;;;25.40;62.60;;;;;;5013596;28;20097;-67
2023/09/10 07:49:02;;;;;;;17.23;11.48;;;25.90;62.40;;;;;;5014455;28;20058;-67
2023/09/10 07:51:28;;;;;;;20.52;11.35;;;26.10;61.40;;;;;;5017410;28;20036;-67
2023/09/10 07:53:54;;;;;;;25.45;11.13;;;26.20;59.70;;;;;;5028582;28;20025;-67
2023/09/10 07:56:19;;;;;;;21.52;11.63;;;26.80;58.70;;;;;;5036873;28;20029;-67
2023/09/10 07:58:45;;;;;;;16.65;10.77;;;27.10;56.60;;;;;;5037166;28;20030;-68
2023/09/10 08:01:11;;;;;;;20.38;11.48;;;27.10;56.90;;;;;;5036848;28;20025;-68
2023/09/10 08:03:38;;;;;;;22.77;11.05;;;27.10;55.30;;;;;;5037068;28;20025;-67
2023/09/10 08:06:04;;;;;;;19.92;10.73;;;27.40;55.50;;;;;;5036670;28;20045;-68
2023/09/10 08:08:30;;;;;;;30.55;11.82;;;27.60;55.50;;;;;;5037166;28;20068;-68
2023/09/10 08:10:56;;;;;;;19.33;10.68;;;28.20;53.90;;;;;;5036707;28;20277;-68
2023/09/10 08:13:22;;;;;;;21.45;10.65;;;28.20;52.30;;;;;;5036731;28;20064;-68
2023/09/10 08:15:48;;;;;;;15.98;10.38;;;28.20;54.00;;;;;;5036833;28;20049;-68
2023/09/10 08:18:14;;;;;;;19.55;9.10;;;28.50;51.50;;;;;;5036892;28;20498;-68
2023/09/10 08:20:41;;;;;;;21.63;10.45;;;28.70;50.50;;;;;;5036724;28;20064;-68
2023/09/10 08:23:07;;;;;;;17.70;9.13;;;28.90;50.60;;;;;;5036604;28;20025;-68
2023/09/10 08:25:34;;;;;;;17.13;9.55;;;29.20;48.60;;;;;;5020101;28;20116;-68
2023/09/10 08:28:00;;;;;;;16.42;9.38;;;29.40;47.90;;;;;;5016446;28;20036;-68
2023/09/10 08:30:27;;;;;;;17.35;9.55;;;29.60;48.20;;;;;;5017225;28;20040;-68
2023/09/10 08:32:53;;;;;;;15.57;9.38;;;29.70;48.40;;;;;;5016397;28;20427;-68
2023/09/10 08:35:21;;;;;;;15.52;8.60;;;29.70;46.30;;;;;;5016607;28;20033;-68
2023/09/10 08:37:47;;;;;;;16.10;9.70;;;29.80;45.50;;;;;;5016534;28;20030;-68
2023/09/10 08:40:13;;;;;;;17.70;9.02;;;30.00;43.60;;;;;;5016626;28;20026;-68
2023/09/10 08:42:54;;;;;;;14.60;8.05;;;29.10;46.90;;;;;;5016296;28;20036;-68
2023/09/10 08:45:21;;;;;;;18.42;8.77;;;29.90;44.60;;;;;;5016567;28;20435;-69
2023/09/10 08:47:49;;;;;;;17.75;9.50;;;30.20;44.80;;;;;;5016049;28;20030;-68
2023/09/10 08:50:15;;;;;;;16.67;9.40;;;30.40;43.00;;;;;;5016553;28;20030;-69
2023/09/10 08:52:48;;;;;;;18.08;9.88;;;30.20;43.30;;;;;;5017320;28;20537;-68
2023/09/10 08:55:14;;;;;;;16.85;9.40;;;30.40;42.10;;;;;;5036181;28;20405;-68
2023/09/10 08:57:44;;;;;;;18.33;9.15;;;30.10;43.60;;;;;;5035734;28;20087;-68
2023/09/10 09:00:12;;;;;;;17.85;9.00;;;30.70;42.50;;;;;;5036140;28;20029;-68
2023/09/10 09:02:44;;;;;;;18.75;9.07;;;31.60;40.40;;;;;;5035089;28;20087;-69
2023/09/10 09:05:10;;;;;;;13.30;8.18;;;32.10;39.70;;;;;;5035933;28;20072;-68
2023/09/10 09:08:09;;;;;;;21.27;8.95;;;32.20;37.00;;;;;;5035483;28;20037;-68
2023/09/10 09:10:35;;;;;;;29.25;9.15;;;32.50;38.40;;;;;;5027183;28;20376;-68
2023/09/10 09:13:08;;;;;;;17.30;7.93;;;32.70;36.80;;;;;;5035372;28;20037;-69
2023/09/10 09:15:37;;;;;;;19.17;8.80;;;32.80;34.50;;;;;;5035647;28;20033;-69
2023/09/10 09:18:08;;;;;;;24.70;8.98;;;33.20;33.70;;;;;;5035471;28;20429;-69
2023/09/10 09:20:36;;;;;;;21.90;9.15;;;33.10;33.60;;;;;;5035716;28;20047;-69
2023/09/10 09:23:11;;;;;;;19.95;7.90;;;33.20;33.60;;;;;;5035249;28;20469;-69
2023/09/10 09:25:37;;;;;;;14.07;6.90;;;33.30;33.90;;;;;;5018380;28;20029;-69
2023/09/10 09:28:04;;;;;;;15.05;7.72;;;33.60;31.80;;;;;;5015451;28;20029;-69
2023/09/10 09:30:31;;;;;;;13.93;7.63;;;33.90;33.40;;;;;;5015591;28;20022;-69
2023/09/10 09:32:57;;;;;;;13.57;7.78;;;34.00;32.60;;;;;;5015663;28;20026;-69
2023/09/10 09:35:23;;;;;;;17.63;7.35;;;34.40;30.60;;;;;;5015353;28;20026;-69
2023/09/10 09:37:49;;;;;;;14.98;7.05;;;34.30;30.00;;;;;;5015511;28;20026;-69
2023/09/10 09:40:21;;;;;;;11.10;7.07;;;34.60;30.80;;;;;;5015257;28;20026;-69
2023/09/10 09:42:47;;;;;;;13.98;6.65;;;35.00;31.40;;;;;;5015496;28;20546;-69
2023/09/10 09:45:13;;;;;;;10.93;6.55;;;35.10;29.40;;;;;;5015192;28;20112;-69
2023/09/10 09:47:45;;;;;;;13.43;7.13;;;35.10;28.10;;;;;;5015480;28;20128;-69
2023/09/10 09:50:14;;;;;;;18.70;5.80;;;35.30;28.10;;;;;;5015062;28;20361;-69
2023/09/10 09:52:40;;;;;;;11.10;5.80;;;35.20;26.60;;;;;;5016428;28;20030;-69
2023/09/10 09:55:07;;;;;;;8.60;5.28;;;34.90;25.70;;;;;;5034643;28;20026;-69
2023/09/10 09:57:36;;;;;;;10.50;5.13;;;34.60;27.30;;;;;;5034980;28;20028;-70
2023/09/10 10:00:08;;;;;;;10.18;5.88;;;35.00;26.30;;;;;;5034618;28;20018;-69
2023/09/10 10:02:34;;;;;;;12.15;6.28;;;35.50;26.50;;;;;;5034641;28;20441;-69
2023/09/10 10:05:00;;;;;;;6.45;5.00;;;35.80;26.10;;;;;;5034219;28;20057;-69
2023/09/10 10:07:28;;;;;;;5.57;4.38;;;35.60;25.80;;;;;;5035033;28;20036;-70
2023/09/10 10:09:54;;;;;;;9.85;5.22;;;35.40;25.60;;;;;;5034347;28;20060;-69
2023/09/10 10:12:20;;;;;;;8.13;4.88;;;35.20;24.80;;;;;;5033976;28;20413;-70
2023/09/10 10:14:47;;;;;;;5.43;4.28;;;34.70;25.30;;;;;;5033963;28;20379;-70
2023/09/10 10:17:15;;;;;;;7.20;4.93;;;34.60;24.80;;;;;;5034881;28;20018;-69
2023/09/10 10:19:42;;;;;;;4.72;3.38;;;34.90;24.50;;;;;;5034221;28;20171;-69
2023/09/10 10:22:08;;;;;;;5.88;3.50;;;34.20;23.20;;;;;;5034452;28;20021;-69
2023/09/10 10:24:35;;;;;;;4.07;3.03;;;33.10;24.50;;;;;;5026076;28;20025;-69
2023/09/10 10:27:01;;;;;;;5.45;3.78;;;32.90;24.00;;;;;;5014645;28;20034;-69
2023/09/10 10:29:28;;;;;;;6.50;3.60;;;33.50;23.80;;;;;;5015142;28;20495;-69
2023/09/10 10:32:22;;;;;;;4.53;3.20;;;34.00;23.20;;;;;;5014379;28;20033;-69
2023/09/10 10:34:56;;;;;;;5.47;3.58;;;33.90;23.10;;;;;;5011529;28;20532;-70
2023/09/10 10:37:56;;;;;;;4.90;3.58;;;33.70;24.30;;;;;;5014568;28;20492;-69
2023/09/10 10:40:29;;;;;;;7.68;3.83;;;33.60;23.60;;;;;;5014152;28;20041;-69
2023/09/10 10:43:15;;;;;;;5.13;3.72;;;32.50;25.20;;;;;;5014769;28;20037;-69
2023/09/10 10:45:44;;;;;;;5.30;3.50;;;33.70;24.30;;;;;;5014116;28;20073;-69
2023/09/10 10:48:14;;;;;;;6.78;3.83;;;33.80;24.20;;;;;;5023519;28;20033;-69
2023/09/10 10:50:41;;;;;;;;;;;33.20;23.70;;;;;;5034328;28;20032;-69
2023/09/10 10:53:17;;;;;;;4.60;3.53;;;33.30;23.90;;;;;;5034143;28;19917;-69
2023/09/10 10:55:44;;;;;;;5.20;3.63;;;33.50;24.10;;;;;;5033667;28;20029;-69
2023/09/10 10:58:10;;;;;;;5.78;3.95;;;34.00;24.70;;;;;;5034158;28;20029;-69
2023/09/10 11:00:36;;;;;;;6.10;3.35;;;34.80;23.10;;;;;;5034251;28;20025;-69
2023/09/10 11:03:15;;;;;;;5.95;3.15;;;34.90;22.80;;;;;;5033639;28;20429;-69
2023/09/10 11:05:53;;;;;;;6.45;3.85;;;34.20;23.20;;;;;;5034051;28;20319;-69
2023/09/10 11:08:42;;;;;;;7.53;4.50;;;35.00;23.80;;;;;;5033902;28;20200;-70
2023/09/10 11:11:10;;;;;;;6.90;3.65;;;34.60;23.00;;;;;;5033857;28;20137;-70
2023/09/10 11:14:00;;;;;;;4.88;3.58;;;35.30;24.40;;;;;;5033865;28;20502;-69
2023/09/10 11:16:29;;;;;;;10.15;4.10;;;35.50;22.90;;;;;;5033591;28;20026;-70
2023/09/10 11:18:55;;;;;;;14.48;3.92;;;36.00;22.40;;;;;;5034234;28;20030;-69
2023/09/10 11:21:21;;;;;;;4.97;3.63;;;36.40;21.60;;;;;;5033887;28;20058;-69
2023/09/10 11:23:56;;;;;;;6.70;4.05;;;35.70;21.10;;;;;;5033806;28;20114;-69
2023/09/10 11:26:22;;;;;;;10.73;5.10;;;35.10;22.50;;;;;;5037768;28;20037;-69
2023/09/10 11:28:54;;;;;;;10.85;4.05;;;34.50;24.00;;;;;;5037468;28;20063;-69
2023/09/10 11:31:38;;;;;;;7.80;3.92;;;35.40;23.00;;;;;;5037525;28;20433;-70
2023/09/10 11:34:27;;;;;;;5.18;4.18;;;35.70;21.30;;;;;;5037628;28;20029;-70
2023/09/10 11:37:02;;;;;;;11.43;3.75;;;35.40;21.80;;;;;;5037413;28;20033;-69
2023/09/10 11:39:29;;;;;;;6.90;4.13;;;34.60;22.30;;;;;;5037533;28;20037;-69
2023/09/10 11:41:57;;;;;;;6.30;3.70;;;33.50;23.10;;;;;;5037544;28;20082;-69
2023/09/10 11:44:23;;;;;;;11.13;5.15;;;33.00;24.80;;;;;;5037253;28;20494;-70
2023/09/10 11:46:51;;;;;;;6.78;4.00;;;33.10;24.70;;;;;;5037384;28;20066;-69
2023/09/10 11:49:18;;;;;;;10.77;4.50;;;32.80;25.00;;;;;;5036945;28;20040;-69
2023/09/10 11:51:51;;;;;;;9.65;4.07;;;32.60;25.70;;;;;;5037263;28;20451;-69
2023/09/10 11:54:17;;;;;;;4.28;3.25;;;33.40;25.00;;;;;;5022434;28;20026;-69
2023/09/10 11:56:48;;;;;;;6.93;4.18;;;33.80;24.60;;;;;;5029707;28;20093;-69
2023/09/10 11:59:20;;;;;;;8.55;4.00;;;34.70;24.00;;;;;;5036784;28;20017;-69
2023/09/10 12:01:46;;;;;;;6.13;4.07;;;35.30;23.60;;;;;;5037195;28;20352;-69
2023/09/10 12:04:13;;;;;;;4.82;3.80;;;35.00;22.40;;;;;;5036849;28;20456;-70
2023/09/10 12:06:39;;;;;;;6.18;3.90;;;34.40;23.10;;;;;;5036508;28;20054;-69
2023/09/10 12:09:05;;;;;;;7.63;4.10;;;34.30;23.40;;;;;;5036682;28;20362;-69
2023/09/10 12:11:33;;;;;;;7.03;3.65;;;34.30;23.50;;;;;;5037017;28;20031;-69
2023/09/10 12:14:00;;;;;;;6.25;3.60;;;33.20;23.60;;;;;;5036770;28;20040;-69
2023/09/10 12:16:26;;;;;;;4.40;3.95;;;32.60;25.10;;;;;;5036890;28;20337;-70
2023/09/10 12:18:52;;;;;;;7.15;3.95;;;32.70;25.00;;;;;;5036499;28;20053;-69
2023/09/10 12:21:19;;;;;;;8.45;5.60;;;33.70;24.10;;;;;;5036628;28;20036;-69
2023/09/10 12:23:46;;;;;;;5.57;4.03;;;33.70;24.50;;;;;;5036357;28;20033;-70
2023/09/10 12:26:13;;;;;;;6.50;4.05;;;34.20;23.20;;;;;;5036771;28;20364;-69
2023/09/10 12:28:39;;;;;;;6.18;3.55;;;34.20;23.80;;;;;;5036270;28;20513;-69
2023/09/10 12:31:05;;;;;;;8.07;3.72;;;34.30;22.80;;;;;;5036644;28;20033;-69
2023/09/10 12:33:34;;;;;;;8.95;4.32;;;33.70;24.20;;;;;;5036583;28;20033;-69
2023/09/10 12:36:02;;;;;;;14.00;4.65;;;33.90;23.60;;;;;;5035273;28;20029;-69
2023/09/10 12:38:29;;;;;;;6.85;3.58;;;33.50;24.10;;;;;;5033480;28;20076;-69